Time;durP1;ratioP1;P1;durP2;ratioP2;P2;SDS_P1;SDS_P2;PMS_P1;PMS_P2;Temp;Humidity;BMP_temperature;BMP_pressure;BME280_temperature;BME280_humidity;BME280_pressure;Samples;Min_cycle;Max_cycle;Signal;HPM_P1;HPM_P2
2021/04/25 00:02:49;;;;;;;11.13;7.60;;;10.60;64.40;;;;;;6250884;28;20483;-72
2021/04/25 00:05:52;;;;;;;7.40;6.70;;;10.60;64.40;;;;;;6252114;28;20520;-69
2021/04/25 00:08:54;;;;;;;10.20;7.20;;;10.60;64.40;;;;;;6247159;28;20467;-71
2021/04/25 00:11:56;;;;;;;9.87;6.80;;;10.60;64.40;;;;;;6251886;28;20479;-70
2021/04/25 00:14:59;;;;;;;8.73;7.00;;;10.50;65.10;;;;;;6251848;28;20471;-69
2021/04/25 00:18:01;;;;;;;7.87;6.83;;;10.50;65.10;;;;;;6251672;28;20474;-69
2021/04/25 00:21:05;;;;;;;10.63;6.47;;;10.40;65.70;;;;;;6251735;28;20475;-67
2021/04/25 00:24:08;;;;;;;7.80;7.00;;;10.40;66.10;;;;;;6250788;28;20478;-66
2021/04/25 00:27:10;;;;;;;7.10;6.53;;;10.40;66.50;;;;;;6254833;28;20545;-63
2021/04/25 00:30:15;;;;;;;8.80;7.07;;;10.40;67.70;;;;;;6249435;28;20479;-62
2021/04/25 00:33:17;;;;;;;7.30;6.43;;;10.40;68.40;;;;;;6249416;28;20479;-63
2021/04/25 00:36:21;;;;;;;8.13;6.90;;;10.40;69.40;;;;;;6249380;28;20467;-63
2021/04/25 00:39:23;;;;;;;9.07;6.70;;;10.40;70.00;;;;;;6249358;28;20470;-63
2021/04/25 00:42:25;;;;;;;10.17;7.67;;;10.40;68.60;;;;;;6249133;28;20474;-63
2021/04/25 00:45:27;;;;;;;9.80;7.40;;;10.30;68.60;;;;;;6251459;28;20963;-63
2021/04/25 00:48:29;;;;;;;7.60;6.20;;;10.30;69.40;;;;;;6249662;28;20470;-63
2021/04/25 00:51:33;;;;;;;9.90;7.00;;;10.30;69.70;;;;;;6250856;28;20966;-63
2021/04/25 00:54:37;;;;;;;10.00;6.40;;;10.30;69.30;;;;;;6251161;28;20990;-64
2021/04/25 00:57:40;;;;;;;8.37;6.10;;;10.30;69.40;;;;;;6250698;28;20464;-63
2021/04/25 01:00:42;;;;;;;7.00;5.90;;;10.30;70.20;;;;;;6250889;28;20494;-63
2021/04/25 01:03:44;;;;;;;7.27;6.53;;;10.30;69.50;;;;;;6250079;28;20545;-63
2021/04/25 01:06:49;;;;;;;8.70;6.00;;;10.30;70.40;;;;;;6250786;28;20574;-63
2021/04/25 01:09:51;;;;;;;10.63;7.47;;;10.30;70.00;;;;;;6249943;28;20493;-63
2021/04/25 01:12:54;;;;;;;7.97;5.73;;;10.20;70.80;;;;;;6250584;28;20487;-63
2021/04/25 01:15:56;;;;;;;8.47;7.07;;;10.20;70.40;;;;;;6245920;28;20475;-63
2021/04/25 01:18:58;;;;;;;7.03;6.30;;;10.20;71.10;;;;;;6250848;28;20481;-63
2021/04/25 01:22:01;;;;;;;8.13;7.33;;;10.10;70.70;;;;;;6250500;28;20812;-61
2021/04/25 01:25:04;;;;;;;8.17;6.00;;;10.10;71.60;;;;;;6250495;28;20478;-63
2021/04/25 01:28:06;;;;;;;8.90;7.07;;;10.10;71.90;;;;;;6250309;28;20923;-63
2021/04/25 01:31:09;;;;;;;8.37;6.60;;;10.10;71.70;;;;;;6249950;28;20467;-63
2021/04/25 01:34:11;;;;;;;7.40;6.70;;;10.20;71.70;;;;;;6249939;28;20489;-63
2021/04/25 01:37:14;;;;;;;8.83;7.47;;;10.20;71.70;;;;;;6249927;28;20463;-63
2021/04/25 01:40:17;;;;;;;9.17;7.17;;;10.20;71.60;;;;;;6249566;28;20459;-64
2021/04/25 01:43:19;;;;;;;8.63;6.43;;;10.10;71.90;;;;;;6250047;28;20455;-64
2021/04/25 01:46:22;;;;;;;8.33;7.43;;;10.00;72.20;;;;;;6250050;28;20439;-63
2021/04/25 01:49:24;;;;;;;8.83;6.33;;;10.00;72.20;;;;;;6249519;28;20776;-64
2021/04/25 01:52:27;;;;;;;7.40;5.87;;;10.00;72.70;;;;;;6249987;28;20443;-63
2021/04/25 01:55:30;;;;;;;7.90;6.70;;;10.00;72.80;;;;;;6249424;28;20447;-63
2021/04/25 01:58:32;;;;;;;7.07;6.00;;;9.90;74.00;;;;;;6250070;28;20458;-63
2021/04/25 02:01:35;;;;;;;9.53;6.47;;;9.80;74.20;;;;;;6249662;28;20477;-63
2021/04/25 02:04:37;;;;;;;7.57;5.80;;;9.80;74.40;;;;;;6249504;28;20529;-63
2021/04/25 02:07:41;;;;;;;7.73;6.53;;;9.80;74.60;;;;;;6250443;28;20465;-63
2021/04/25 02:10:44;;;;;;;11.03;7.37;;;9.80;74.70;;;;;;6249138;28;20474;-63
2021/04/25 02:13:46;;;;;;;9.90;7.77;;;9.80;75.30;;;;;;6249011;28;20470;-63
2021/04/25 02:16:49;;;;;;;7.17;6.57;;;9.70;74.90;;;;;;6240140;28;20947;-63
2021/04/25 02:19:52;;;;;;;7.33;6.43;;;9.70;75.30;;;;;;6249491;28;20475;-63
2021/04/25 02:22:56;;;;;;;7.50;6.57;;;9.70;75.30;;;;;;6248946;28;20501;-63
2021/04/25 02:25:58;;;;;;;7.47;6.73;;;9.70;75.30;;;;;;6249447;28;20481;-63
2021/04/25 02:29:00;;;;;;;8.73;6.60;;;9.70;75.70;;;;;;6249088;28;20481;-63
2021/04/25 02:32:03;;;;;;;7.53;6.23;;;9.60;76.30;;;;;;6249794;28;20549;-63
2021/04/25 02:35:07;;;;;;;8.07;6.30;;;9.60;75.90;;;;;;6249687;28;20546;-63
2021/04/25 02:38:10;;;;;;;7.30;6.60;;;9.60;76.70;;;;;;6249216;28;20475;-63
2021/04/25 02:41:13;;;;;;;9.63;6.80;;;9.50;77.00;;;;;;6249449;28;20501;-63
2021/04/25 02:44:15;;;;;;;7.00;6.30;;;9.50;77.00;;;;;;6249122;28;20497;-63
2021/04/25 02:47:17;;;;;;;7.17;6.47;;;9.40;77.20;;;;;;6249097;28;20970;-63
2021/04/25 02:50:22;;;;;;;7.70;7.00;;;9.40;77.60;;;;;;6249230;28;20817;-63
2021/04/25 02:53:25;;;;;;;10.97;6.63;;;9.30;77.90;;;;;;6249343;28;20478;-63
2021/04/25 02:56:27;;;;;;;7.63;6.07;;;9.20;78.20;;;;;;6248775;28;20471;-63
2021/04/25 02:59:29;;;;;;;6.97;6.27;;;9.20;78.60;;;;;;6249277;28;20462;-63
2021/04/25 03:02:32;;;;;;;9.13;6.30;;;9.20;79.00;;;;;;6248470;28;20812;-63
2021/04/25 03:05:34;;;;;;;7.13;6.37;;;9.10;79.40;;;;;;6249221;28;20475;-63
2021/04/25 03:08:37;;;;;;;7.70;6.77;;;9.10;79.90;;;;;;6248928;28;20551;-63
2021/04/25 03:11:39;;;;;;;7.63;5.73;;;9.10;80.00;;;;;;6248829;28;20467;-63
2021/04/25 03:14:42;;;;;;;11.20;8.43;;;9.10;80.10;;;;;;6248765;28;20482;-63
2021/04/25 03:17:45;;;;;;;9.77;7.20;;;9.20;80.30;;;;;;6248831;28;20809;-63
2021/04/25 03:20:47;;;;;;;7.27;6.60;;;9.20;80.60;;;;;;6244818;28;20467;-63
2021/04/25 03:23:50;;;;;;;7.73;7.03;;;9.10;80.50;;;;;;6248865;28;20474;-63
2021/04/25 03:26:54;;;;;;;8.37;6.93;;;9.20;81.30;;;;;;6252992;28;22446;-63
2021/04/25 03:29:56;;;;;;;8.80;7.57;;;9.10;81.20;;;;;;6252941;28;20475;-63
2021/04/25 03:32:58;;;;;;;8.83;7.77;;;9.10;82.30;;;;;;6253311;28;20486;-63
2021/04/25 03:36:00;;;;;;;10.77;9.03;;;9.10;81.20;;;;;;6252517;28;20478;-63
2021/04/25 03:39:04;;;;;;;8.90;7.67;;;9.10;81.50;;;;;;6252801;28;20824;-63
2021/04/25 03:42:06;;;;;;;11.00;7.63;;;9.00;81.60;;;;;;6253112;28;20946;-63
2021/04/25 03:45:13;;;;;;;7.50;6.70;;;9.00;82.30;;;;;;6253018;28;20467;-63
2021/04/25 03:48:15;;;;;;;8.47;7.63;;;8.90;82.80;;;;;;6252557;28;20507;-63
2021/04/25 03:51:18;;;;;;;8.93;7.63;;;8.80;83.20;;;;;;6252694;28;21056;-63
2021/04/25 03:54:23;;;;;;;7.83;6.60;;;8.80;83.50;;;;;;6252384;28;20813;-63
2021/04/25 03:57:27;;;;;;;9.50;7.70;;;8.80;83.60;;;;;;6252300;28;20826;-63
2021/04/25 04:00:29;;;;;;;8.30;7.40;;;8.70;83.50;;;;;;6252250;28;20479;-63
2021/04/25 04:03:32;;;;;;;7.83;7.10;;;8.70;84.10;;;;;;6251772;28;20815;-63
2021/04/25 04:06:34;;;;;;;9.07;7.30;;;8.70;84.30;;;;;;6252318;28;20475;-63
2021/04/25 04:09:39;;;;;;;10.50;7.90;;;8.70;84.70;;;;;;6251773;28;20471;-63
2021/04/25 04:12:41;;;;;;;8.23;7.00;;;8.70;84.70;;;;;;6251956;28;20498;-63
2021/04/25 04:15:43;;;;;;;8.20;7.43;;;8.80;84.80;;;;;;6251720;28;20557;-63
2021/04/25 04:18:45;;;;;;;9.80;7.50;;;8.70;84.70;;;;;;6251865;28;20471;-63
2021/04/25 04:21:47;;;;;;;10.87;7.23;;;8.80;85.30;;;;;;6251823;28;20467;-63
2021/04/25 04:24:50;;;;;;;8.27;6.97;;;8.80;85.40;;;;;;6251463;28;20485;-63
2021/04/25 04:27:52;;;;;;;9.23;6.93;;;8.70;85.40;;;;;;6247193;28;20505;-63
2021/04/25 04:30:55;;;;;;;8.63;6.37;;;8.80;85.40;;;;;;6251426;28;20467;-63
2021/04/25 04:33:57;;;;;;;8.57;7.33;;;8.80;85.50;;;;;;6251511;28;20536;-63
2021/04/25 04:37:00;;;;;;;10.37;7.30;;;8.80;85.30;;;;;;6250440;28;20471;-63
2021/04/25 04:40:06;;;;;;;7.90;7.10;;;8.90;85.00;;;;;;6251238;28;21105;-63
2021/04/25 04:43:11;;;;;;;10.17;6.50;;;8.90;85.10;;;;;;6251190;28;20481;-63
2021/04/25 04:46:13;;;;;;;12.17;8.00;;;8.90;85.10;;;;;;6251369;28;20497;-63
2021/04/25 04:49:15;;;;;;;7.87;6.23;;;9.00;85.40;;;;;;6250570;28;20494;-64
2021/04/25 04:52:17;;;;;;;7.90;7.10;;;9.00;85.00;;;;;;6250790;28;20479;-64
2021/04/25 04:55:21;;;;;;;12.80;8.33;;;9.00;85.00;;;;;;6250590;28;20954;-63
2021/04/25 04:58:23;;;;;;;8.40;7.10;;;8.90;84.90;;;;;;6250510;28;20450;-63
2021/04/25 05:01:25;;;;;;;8.53;7.20;;;9.00;85.30;;;;;;6250911;28;20479;-62
2021/04/25 05:04:27;;;;;;;10.33;8.13;;;9.10;85.70;;;;;;6250579;28;20486;-63
2021/04/25 05:07:29;;;;;;;11.73;7.83;;;9.40;85.20;;;;;;6251007;28;20565;-63
2021/04/25 05:10:33;;;;;;;9.10;7.47;;;9.60;84.80;;;;;;6250768;28;20450;-63
2021/04/25 05:13:35;;;;;;;8.23;6.77;;;10.00;82.40;;;;;;6250924;28;20467;-64
2021/04/25 05:16:37;;;;;;;7.70;6.90;;;10.20;80.80;;;;;;6250688;28;20463;-63
2021/04/25 05:19:39;;;;;;;10.43;7.80;;;10.30;79.50;;;;;;6250989;28;20461;-63
2021/04/25 05:22:42;;;;;;;7.97;7.03;;;10.60;78.80;;;;;;6250281;28;20474;-64
2021/04/25 05:25:45;;;;;;;8.60;7.70;;;10.90;77.80;;;;;;6250849;28;20537;-64
2021/04/25 05:28:47;;;;;;;7.70;6.57;;;11.20;77.50;;;;;;6241509;28;20474;-62
2021/04/25 05:31:49;;;;;;;8.80;7.03;;;11.80;75.10;;;;;;6250767;28;20471;-63
2021/04/25 05:34:51;;;;;;;7.20;6.00;;;12.40;72.60;;;;;;6250364;28;20466;-63
2021/04/25 05:37:54;;;;;;;10.50;7.40;;;13.00;69.80;;;;;;6249763;28;20475;-63
2021/04/25 05:40:59;;;;;;;8.47;6.70;;;13.30;67.30;;;;;;6249938;28;20787;-63
2021/04/25 05:44:01;;;;;;;7.30;6.70;;;13.40;65.80;;;;;;6249522;28;20820;-63
2021/04/25 05:47:04;;;;;;;10.83;7.20;;;13.60;65.10;;;;;;6250080;28;20471;-63
2021/04/25 05:50:07;;;;;;;9.00;7.00;;;13.70;63.90;;;;;;6249565;28;20489;-63
2021/04/25 05:53:09;;;;;;;8.30;7.50;;;13.70;63.40;;;;;;6249826;28;20470;-63
2021/04/25 05:56:13;;;;;;;8.10;7.27;;;13.80;62.90;;;;;;6249769;28;20486;-63
2021/04/25 05:59:15;;;;;;;10.27;7.30;;;13.90;62.70;;;;;;6250340;28;20963;-63
2021/04/25 06:02:17;;;;;;;13.33;7.20;;;14.10;62.30;;;;;;6249292;28;20967;-63
2021/04/25 06:05:20;;;;;;;8.37;7.57;;;14.60;61.40;;;;;;6249331;28;20470;-63
2021/04/25 06:08:22;;;;;;;7.50;6.43;;;15.40;59.60;;;;;;6249373;28;20927;-62
2021/04/25 06:11:25;;;;;;;7.07;6.30;;;16.20;57.10;;;;;;6249404;28;20483;-63
2021/04/25 06:14:28;;;;;;;8.57;7.77;;;16.80;55.30;;;;;;6249650;28;20487;-63
2021/04/25 06:17:30;;;;;;;9.53;6.00;;;17.60;53.70;;;;;;6249199;28;20473;-66
2021/04/25 06:20:32;;;;;;;7.70;6.90;;;18.60;51.60;;;;;;6249792;28;20481;-65
2021/04/25 06:23:34;;;;;;;8.10;6.67;;;19.30;48.90;;;;;;6248873;28;20788;-66
2021/04/25 06:26:38;;;;;;;8.17;7.20;;;19.80;45.90;;;;;;6249522;28;20479;-66
2021/04/25 06:29:40;;;;;;;10.90;6.73;;;20.10;45.00;;;;;;6249142;28;20545;-66
2021/04/25 06:32:42;;;;;;;6.90;6.30;;;20.40;44.10;;;;;;6244440;28;20240;-65
2021/04/25 06:35:44;;;;;;;8.03;7.27;;;21.10;43.20;;;;;;6249020;28;20232;-65
2021/04/25 06:38:47;;;;;;;7.13;6.43;;;22.10;41.90;;;;;;6248904;28;20691;-66
2021/04/25 06:41:50;;;;;;;6.93;6.23;;;23.10;39.80;;;;;;6249525;28;20228;-67
2021/04/25 06:44:52;;;;;;;9.17;7.40;;;23.70;38.10;;;;;;6248958;28;20247;-66
2021/04/25 06:47:54;;;;;;;8.43;7.67;;;24.60;36.40;;;;;;6249010;28;20236;-67
2021/04/25 06:50:56;;;;;;;6.90;6.20;;;24.80;35.00;;;;;;6248840;28;20561;-62
2021/04/25 06:53:59;;;;;;;8.63;6.40;;;25.10;34.50;;;;;;6248935;28;20232;-63
2021/04/25 06:57:02;;;;;;;8.70;6.50;;;25.80;33.20;;;;;;6249036;28;20317;-64
2021/04/25 07:00:05;;;;;;;9.03;7.20;;;25.70;32.70;;;;;;6250294;28;20251;-63
2021/04/25 07:03:08;;;;;;;11.13;7.40;;;25.30;32.30;;;;;;6253992;28;20250;-64
2021/04/25 07:06:11;;;;;;;9.03;6.73;;;24.60;32.40;;;;;;6253140;28;20238;-64
2021/04/25 07:09:13;;;;;;;8.93;7.97;;;24.20;32.90;;;;;;6252301;28;20235;-66
2021/04/25 07:12:16;;;;;;;13.60;8.27;;;23.80;33.60;;;;;;6253152;28;20814;-66
2021/04/25 07:15:18;;;;;;;7.30;6.60;;;23.40;33.90;;;;;;6252340;28;20243;-66
2021/04/25 07:18:21;;;;;;;12.43;7.47;;;23.40;34.40;;;;;;6252845;28;20576;-66
2021/04/25 07:21:23;;;;;;;9.47;8.20;;;23.70;34.10;;;;;;6252619;28;20250;-68
2021/04/25 07:24:27;;;;;;;7.80;7.00;;;24.10;34.40;;;;;;6252890;28;20236;-67
2021/04/25 07:27:30;;;;;;;9.03;8.20;;;24.60;33.20;;;;;;6251178;28;20228;-68
2021/04/25 07:30:33;;;;;;;8.20;7.50;;;25.00;32.50;;;;;;6250860;28;20568;-69
2021/04/25 07:33:35;;;;;;;9.80;8.80;;;25.40;32.20;;;;;;6251059;28;20370;-69
2021/04/25 07:36:37;;;;;;;9.17;8.27;;;25.70;31.10;;;;;;6251052;28;20228;-62
2021/04/25 07:39:39;;;;;;;8.93;8.03;;;25.60;30.70;;;;;;6239866;28;20243;-69
2021/04/25 07:42:43;;;;;;;9.40;8.50;;;25.20;31.20;;;;;;6252330;28;20242;-69
2021/04/25 07:45:45;;;;;;;8.90;8.03;;;25.60;31.10;;;;;;6253078;28;20242;-68
2021/04/25 07:48:50;;;;;;;10.67;8.77;;;26.10;30.60;;;;;;6252840;28;20581;-68
2021/04/25 07:51:52;;;;;;;10.10;9.10;;;26.90;29.80;;;;;;6252658;28;20702;-63
2021/04/25 07:54:54;;;;;;;10.10;8.73;;;27.60;29.10;;;;;;6252527;28;20583;-68
2021/04/25 07:57:57;;;;;;;9.67;8.73;;;27.40;29.00;;;;;;6252118;28;20574;-68
2021/04/25 08:01:00;;;;;;;9.90;8.90;;;26.90;29.10;;;;;;6252180;28;20551;-68
2021/04/25 08:04:02;;;;;;;10.70;8.27;;;26.50;29.70;;;;;;6251814;28;20361;-68
2021/04/25 08:07:04;;;;;;;10.23;9.23;;;25.80;29.50;;;;;;6252310;28;20247;-67
2021/04/25 08:10:08;;;;;;;11.03;9.00;;;24.80;30.50;;;;;;6251735;28;20232;-67
2021/04/25 08:13:11;;;;;;;9.03;8.20;;;24.40;31.00;;;;;;6251475;28;20242;-68
2021/04/25 08:16:14;;;;;;;11.13;9.30;;;24.00;31.50;;;;;;6252005;28;20706;-68
2021/04/25 08:19:16;;;;;;;10.17;8.57;;;23.70;32.00;;;;;;6252463;28;20335;-69
2021/04/25 08:22:18;;;;;;;8.83;7.93;;;23.50;32.30;;;;;;6251570;28;20550;-68
2021/04/25 08:25:21;;;;;;;12.17;8.20;;;23.20;33.00;;;;;;6251628;28;20228;-68
2021/04/25 08:28:24;;;;;;;12.50;8.83;;;23.00;33.50;;;;;;6252235;28;20235;-70
2021/04/25 08:31:27;;;;;;;10.97;8.57;;;22.90;34.00;;;;;;6251484;28;20204;-69
2021/04/25 08:34:29;;;;;;;9.43;8.43;;;22.70;34.40;;;;;;6251879;28;20313;-68
2021/04/25 08:37:31;;;;;;;13.73;8.67;;;22.50;34.80;;;;;;6250938;28;20205;-68
2021/04/25 08:40:34;;;;;;;10.73;7.93;;;22.20;35.20;;;;;;6242170;28;20219;-69
2021/04/25 08:43:40;;;;;;;9.73;7.77;;;22.20;35.80;;;;;;6251305;28;20239;-70
2021/04/25 08:46:46;;;;;;;8.63;7.47;;;22.60;35.60;;;;;;6251555;28;20228;-71
2021/04/25 08:49:49;;;;;;;8.70;7.70;;;23.40;34.70;;;;;;6250420;28;20571;-70
2021/04/25 08:52:51;;;;;;;9.47;8.47;;;24.80;32.90;;;;;;6251045;28;20744;-73
2021/04/25 08:55:53;;;;;;;10.43;9.43;;;26.00;31.20;;;;;;6251089;28;20561;-70
2021/04/25 08:58:58;;;;;;;8.77;7.67;;;27.90;29.20;;;;;;6251495;28;20228;-71
2021/04/25 09:02:00;;;;;;;10.87;8.70;;;29.50;27.80;;;;;;6251101;28;20232;-70
2021/04/25 09:05:02;;;;;;;8.13;7.53;;;31.30;25.80;;;;;;6251841;28;20228;-69
2021/04/25 09:08:06;;;;;;;8.63;7.82;;;32.30;25.00;;;;;;6251459;28;20235;-69
2021/04/25 09:11:23;;;;;;;8.68;7.30;;;32.70;24.50;;;;;;6250689;28;20242;-69
2021/04/25 09:14:26;;;;;;;10.60;8.43;;;31.70;24.70;;;;;;6251148;28;20232;-68
2021/04/25 09:17:28;;;;;;;7.70;7.10;;;31.20;24.50;;;;;;6251781;28;20687;-69
2021/04/25 09:20:36;;;;;;;8.30;7.25;;;30.60;25.40;;;;;;6258179;28;20570;-68
2021/04/25 09:23:40;;;;;;;8.43;7.53;;;30.40;26.20;;;;;;6257112;28;20574;-67
2021/04/25 09:26:42;;;;;;;8.13;7.33;;;29.40;27.20;;;;;;6258296;28;20232;-68
2021/04/25 09:29:51;;;;;;;8.20;7.60;;;28.30;27.40;;;;;;6255631;28;20582;-68
2021/04/25 09:33:00;;;;;;;9.50;8.10;;;27.50;28.20;;;;;;6250322;28;20695;-68
2021/04/25 09:36:03;;;;;;;9.57;8.57;;;26.60;28.70;;;;;;6250692;28;20228;-67
2021/04/25 09:39:12;;;;;;;9.30;8.40;;;25.60;29.70;;;;;;6251930;28;20360;-68
2021/04/25 09:42:14;;;;;;;8.90;8.00;;;25.00;30.30;;;;;;6250448;28;20227;-71
2021/04/25 09:45:24;;;;;;;11.47;7.80;;;24.90;30.80;;;;;;6246642;28;20236;-70
2021/04/25 09:48:28;;;;;;;8.37;7.67;;;24.30;31.20;;;;;;6249876;28;20258;-69
2021/04/25 09:51:30;;;;;;;11.23;8.40;;;23.60;32.80;;;;;;6239171;28;20228;-66
2021/04/25 09:54:34;;;;;;;15.63;7.70;;;23.00;33.30;;;;;;6235108;28;20237;-67
2021/04/25 09:57:37;;;;;;;8.03;7.20;;;22.90;33.50;;;;;;6248662;28;20231;-65
2021/04/25 10:00:41;;;;;;;27.60;10.10;;;22.80;33.70;;;;;;6224628;28;20255;-68
2021/04/25 10:03:47;;;;;;;8.80;7.87;;;22.50;34.00;;;;;;6225026;28;20251;-67
2021/04/25 10:06:50;;;;;;;9.10;8.30;;;22.10;34.40;;;;;;6231029;28;20549;-69
2021/04/25 10:10:10;;;;;;;8.63;7.27;;;22.30;35.00;;;;;;6247350;28;20236;-66
2021/04/25 10:13:13;;;;;;;10.50;8.10;;;22.60;34.80;;;;;;6247977;28;20232;-67
2021/04/25 10:16:17;;;;;;;7.93;7.00;;;22.80;34.70;;;;;;6250108;28;20231;-67
2021/04/25 10:19:20;;;;;;;8.63;7.53;;;22.70;35.00;;;;;;6249975;28;20216;-65
2021/04/25 10:22:25;;;;;;;10.07;6.97;;;22.70;34.90;;;;;;6249744;28;20279;-66
2021/04/25 10:25:35;;;;;;;9.47;8.47;;;22.90;34.90;;;;;;6248889;28;20561;-68
2021/04/25 10:28:43;;;;;;;9.70;7.93;;;22.70;34.90;;;;;;6249675;28;20236;-67
2021/04/25 10:31:46;;;;;;;7.93;7.20;;;22.90;34.70;;;;;;6249313;28;20232;-71
2021/04/25 10:34:51;;;;;;;8.70;7.90;;;23.00;34.50;;;;;;6250918;28;20228;-68
2021/04/25 10:37:53;;;;;;;7.93;7.13;;;23.10;34.50;;;;;;6253816;28;20681;-72
2021/04/25 10:41:19;;;;;;;11.90;8.07;;;22.30;34.50;;;;;;6254070;28;20227;-66
2021/04/25 10:44:21;;;;;;;7.57;6.87;;;22.60;35.50;;;;;;6254095;28;20236;-66
2021/04/25 10:47:24;;;;;;;7.80;7.00;;;22.70;35.10;;;;;;6253333;28;20251;-74
2021/04/25 10:50:45;;;;;;;8.40;7.10;;;23.10;34.40;;;;;;6253365;28;20237;-69
2021/04/25 10:53:48;;;;;;;8.73;7.33;;;23.40;33.80;;;;;;6253592;28;20692;-71
2021/04/25 10:57:07;;;;;;;9.70;8.57;;;23.60;33.30;;;;;;6253832;28;20238;-71
2021/04/25 11:00:37;;;;;;;12.43;8.20;;;23.50;32.90;;;;;;6253372;28;20236;-71
2021/04/25 11:03:42;;;;;;;8.43;7.53;;;23.60;32.10;;;;;;6253585;28;20228;-70
2021/04/25 11:06:44;;;;;;;8.47;7.67;;;23.60;31.90;;;;;;6253249;28;20840;-69
2021/04/25 11:09:53;;;;;;;10.67;7.70;;;23.40;31.60;;;;;;6228887;28;20259;-70
2021/04/25 11:12:55;;;;;;;8.97;6.53;;;23.40;32.40;;;;;;6228691;28;20677;-69
2021/04/25 11:15:58;;;;;;;8.37;6.63;;;23.30;31.80;;;;;;6229261;28;20235;-68
2021/04/25 11:19:03;;;;;;;6.90;5.73;;;23.50;31.30;;;;;;6228660;28;20229;-69
2021/04/25 11:22:06;;;;;;;7.17;6.37;;;23.70;31.00;;;;;;6228535;28;20707;-70
2021/04/25 11:25:27;;;;;;;8.30;6.67;;;23.90;30.80;;;;;;6242426;28;20227;-69
2021/04/25 11:28:52;;;;;;;8.43;7.10;;;24.00;31.20;;;;;;6253459;28;20231;-66
2021/04/25 11:31:56;;;;;;;7.23;6.30;;;24.40;31.00;;;;;;6252949;28;20239;-68
2021/04/25 11:35:02;;;;;;;8.13;7.43;;;24.60;30.00;;;;;;6253379;28;20229;-70
2021/04/25 11:38:07;;;;;;;7.83;7.23;;;23.90;29.80;;;;;;6252578;28;20228;-68
2021/04/25 11:41:10;;;;;;;8.87;6.90;;;23.90;30.00;;;;;;6252642;28;20307;-67
2021/04/25 11:44:12;;;;;;;9.20;7.40;;;23.90;29.90;;;;;;6252252;28;20232;-65
2021/04/25 11:47:16;;;;;;;8.27;7.00;;;23.60;30.10;;;;;;6252165;28;20707;-66
2021/04/25 11:50:20;;;;;;;8.90;7.10;;;23.80;30.50;;;;;;6252173;28;20615;-67
2021/04/25 11:53:34;;;;;;;7.60;6.47;;;23.90;29.70;;;;;;6242778;28;20231;-68
2021/04/25 11:56:36;;;;;;;7.97;7.23;;;24.10;30.10;;;;;;6252324;28;20747;-68
2021/04/25 11:59:52;;;;;;;10.83;8.00;;;23.90;29.70;;;;;;6252480;28;20232;-66
2021/04/25 12:02:56;;;;;;;7.70;6.80;;;23.00;30.70;;;;;;6252091;28;20248;-63
2021/04/25 12:06:02;;;;;;;8.93;7.30;;;22.90;31.50;;;;;;6252358;28;20228;-65
2021/04/25 12:09:04;;;;;;;8.73;6.63;;;23.30;30.90;;;;;;6251633;28;20669;-68
2021/04/25 12:12:07;;;;;;;8.50;7.60;;;23.60;30.80;;;;;;6248954;28;20281;-70
2021/04/25 12:15:12;;;;;;;7.20;6.50;;;23.20;30.80;;;;;;6250769;28;20239;-68
2021/04/25 12:18:15;;;;;;;10.23;8.13;;;22.90;31.20;;;;;;6250245;28;20676;-68
2021/04/25 12:21:21;;;;;;;8.43;7.53;;;22.80;31.10;;;;;;6250226;28;20715;-69
2021/04/25 12:24:23;;;;;;;7.80;7.03;;;22.70;30.70;;;;;;6250353;28;20247;-68
2021/04/25 12:27:26;;;;;;;8.67;7.20;;;22.70;30.90;;;;;;6252021;28;20234;-68
2021/04/25 12:30:30;;;;;;;11.13;6.83;;;23.00;32.10;;;;;;6251550;28;20829;-68
2021/04/25 12:33:40;;;;;;;9.97;7.03;;;23.10;33.20;;;;;;6251841;28;20246;-69
2021/04/25 12:36:52;;;;;;;9.30;6.97;;;22.90;33.70;;;;;;6251174;28;20633;-68
2021/04/25 12:39:54;;;;;;;10.10;7.80;;;22.50;34.20;;;;;;6251549;28;20564;-68
2021/04/25 12:43:14;;;;;;;8.77;6.77;;;22.20;34.90;;;;;;6250700;28;20290;-68
2021/04/25 12:46:18;;;;;;;7.93;7.13;;;22.00;35.60;;;;;;6251241;28;20235;-69
2021/04/25 12:49:20;;;;;;;9.03;7.83;;;21.80;36.80;;;;;;6250210;28;20293;-68
2021/04/25 12:52:35;;;;;;;8.70;7.80;;;21.50;37.10;;;;;;6251289;28;20200;-69
2021/04/25 12:55:37;;;;;;;9.50;8.50;;;21.30;37.80;;;;;;6246186;28;20212;-69
2021/04/25 12:58:39;;;;;;;9.37;7.70;;;21.00;38.80;;;;;;6251025;28;20200;-68
2021/04/25 13:01:47;;;;;;;8.37;7.50;;;20.60;39.40;;;;;;6250476;28;20238;-68
2021/04/25 13:04:50;;;;;;;8.33;6.70;;;20.30;39.80;;;;;;6251150;28;20232;-68
2021/04/25 13:07:53;;;;;;;6.20;5.60;;;20.20;39.70;;;;;;6250703;28;20224;-67
2021/04/25 13:10:55;;;;;;;6.67;5.40;;;20.20;41.00;;;;;;6250875;28;20676;-68
2021/04/25 13:14:05;;;;;;;6.90;6.30;;;20.10;40.00;;;;;;6250948;28;20232;-67
2021/04/25 13:17:07;;;;;;;5.70;5.10;;;20.00;41.40;;;;;;6251096;28;20228;-69
2021/04/25 13:20:21;;;;;;;6.00;5.50;;;20.00;40.80;;;;;;6250947;28;20224;-68
2021/04/25 13:23:30;;;;;;;6.50;5.00;;;20.00;40.00;;;;;;6250529;28;20232;-68
2021/04/25 13:26:32;;;;;;;6.53;5.40;;;20.10;40.20;;;;;;6250545;28;20225;-69
2021/04/25 13:29:34;;;;;;;6.57;5.87;;;20.20;40.60;;;;;;6250469;28;20244;-70
2021/04/25 13:32:36;;;;;;;8.80;7.60;;;20.40;39.80;;;;;;6250659;28;20223;-69
2021/04/25 13:35:42;;;;;;;7.03;6.33;;;20.30;40.70;;;;;;6250017;28;20321;-68
2021/04/25 13:38:45;;;;;;;7.03;6.33;;;20.40;40.60;;;;;;6250230;28;20232;-68
2021/04/25 13:41:48;;;;;;;7.13;6.43;;;20.50;40.80;;;;;;6249888;28;20239;-68
2021/04/25 13:44:50;;;;;;;6.97;6.00;;;20.60;40.50;;;;;;6250394;28;20318;-68
2021/04/25 13:47:52;;;;;;;7.53;6.63;;;20.60;39.70;;;;;;6249621;28;20238;-68
2021/04/25 13:50:54;;;;;;;5.60;5.00;;;20.60;40.00;;;;;;6249895;28;20228;-68
2021/04/25 13:53:58;;;;;;;7.27;6.67;;;20.50;40.60;;;;;;6249507;28;20236;-68
2021/04/25 13:57:00;;;;;;;9.70;5.63;;;20.40;40.40;;;;;;6250052;28;20228;-69
2021/04/25 14:00:04;;;;;;;10.10;6.13;;;20.30;40.80;;;;;;6249306;28;20371;-69
2021/04/25 14:03:08;;;;;;;7.33;6.53;;;20.40;41.00;;;;;;6249363;28;20236;-69
2021/04/25 14:06:11;;;;;;;7.70;6.57;;;20.30;41.00;;;;;;6249665;28;20232;-69
2021/04/25 14:09:16;;;;;;;7.17;6.33;;;20.30;40.80;;;;;;6249646;28;20239;-69
2021/04/25 14:12:18;;;;;;;8.60;6.77;;;20.40;41.20;;;;;;6249498;28;20238;-69
2021/04/25 14:15:22;;;;;;;8.47;7.03;;;20.60;41.20;;;;;;6249101;28;20266;-69
2021/04/25 14:18:24;;;;;;;7.00;6.30;;;20.90;40.60;;;;;;6249591;28;20228;-68
2021/04/25 14:21:27;;;;;;;9.47;7.80;;;21.00;40.70;;;;;;6249092;28;20232;-69
2021/04/25 14:24:30;;;;;;;8.20;7.30;;;20.80;41.00;;;;;;6249055;28;20289;-68
2021/04/25 14:27:32;;;;;;;8.03;7.20;;;20.40;42.10;;;;;;6248970;28;20243;-69
2021/04/25 14:30:36;;;;;;;9.53;7.50;;;20.30;41.80;;;;;;6248946;28;20231;-68
2021/04/25 14:33:38;;;;;;;11.10;8.00;;;20.50;41.40;;;;;;6248680;28;20243;-68
2021/04/25 14:36:43;;;;;;;10.70;7.70;;;20.50;40.20;;;;;;6249128;28;20224;-68
2021/04/25 14:39:48;;;;;;;9.40;7.87;;;20.30;40.20;;;;;;6248957;28;20568;-69
2021/04/25 14:42:51;;;;;;;11.23;7.70;;;20.10;40.50;;;;;;6249372;28;20255;-69
2021/04/25 14:45:53;;;;;;;9.60;7.60;;;20.20;41.00;;;;;;6249239;28;20229;-69
2021/04/25 14:48:56;;;;;;;12.30;8.87;;;20.20;40.70;;;;;;6249200;28;20232;-63
2021/04/25 14:51:58;;;;;;;10.77;7.23;;;20.20;40.30;;;;;;6248603;28;20274;-63
2021/04/25 14:55:01;;;;;;;9.43;8.50;;;20.20;40.60;;;;;;6248551;28;20228;-64
2021/04/25 14:58:03;;;;;;;9.00;7.47;;;20.10;40.00;;;;;;6248791;28;20216;-64
2021/04/25 15:01:06;;;;;;;11.70;7.90;;;20.10;39.90;;;;;;6248655;28;20572;-63
2021/04/25 15:04:09;;;;;;;8.53;7.73;;;20.00;40.10;;;;;;6249091;28;20232;-63
2021/04/25 15:07:12;;;;;;;9.73;7.47;;;19.80;40.30;;;;;;6239578;28;20243;-68
2021/04/25 15:10:16;;;;;;;8.17;7.07;;;20.00;40.60;;;;;;6249021;28;20232;-68
2021/04/25 15:13:19;;;;;;;7.90;7.20;;;20.00;40.50;;;;;;6248332;28;20667;-68
2021/04/25 15:16:22;;;;;;;8.93;6.93;;;20.20;41.00;;;;;;6224525;28;20229;-68
2021/04/25 15:19:24;;;;;;;8.10;7.40;;;20.30;41.00;;;;;;6224775;28;20201;-69
2021/04/25 15:22:27;;;;;;;8.67;7.40;;;20.30;41.10;;;;;;6227863;28;20276;-68
2021/04/25 15:25:30;;;;;;;7.87;6.90;;;20.20;41.00;;;;;;6228585;28;20209;-68
2021/04/25 15:28:33;;;;;;;10.80;7.87;;;20.10;41.90;;;;;;6228360;28;20201;-68
2021/04/25 15:31:35;;;;;;;9.00;7.20;;;20.00;42.00;;;;;;6228607;28;20235;-68
2021/04/25 15:34:38;;;;;;;8.20;7.33;;;19.50;42.40;;;;;;6228046;28;20229;-69
2021/04/25 15:37:45;;;;;;;8.87;8.07;;;19.30;42.90;;;;;;6228402;28;20243;-68
2021/04/25 15:40:48;;;;;;;8.97;8.07;;;19.10;43.10;;;;;;6228283;28;20236;-68
2021/04/25 15:43:50;;;;;;;7.90;7.10;;;19.10;43.40;;;;;;6227872;28;20302;-68
2021/04/25 15:46:53;;;;;;;7.97;6.80;;;19.00;43.40;;;;;;6227762;28;20239;-67
2021/04/25 15:49:56;;;;;;;9.53;8.03;;;19.10;44.10;;;;;;6227578;28;20697;-69
2021/04/25 15:52:58;;;;;;;9.53;8.63;;;19.20;44.00;;;;;;6226649;28;20251;-68
2021/04/25 15:56:02;;;;;;;8.33;7.60;;;19.10;42.90;;;;;;6227586;28;20603;-68